createdAt,value
2017-08-12T00:00:18.469Z,74.21
2017-08-12T00:01:27.324Z,74.17
2017-08-12T00:02:36.169Z,74.07
2017-08-12T00:03:45.018Z,74.11
2017-08-12T00:04:53.869Z,74.4
2017-08-12T00:06:02.721Z,74.11
2017-08-12T00:07:11.574Z,74.3
2017-08-12T00:08:20.426Z,74.36
2017-08-12T00:09:29.275Z,74.21
2017-08-12T00:10:38.436Z,74.49
2017-08-12T00:11:47.290Z,74.17
2017-08-12T00:12:56.147Z,74.27
2017-08-12T00:14:04.993Z,74.49
2017-08-12T00:15:13.846Z,74.27
2017-08-12T00:16:22.696Z,74.4
2017-08-12T00:17:31.546Z,73.78
2017-08-12T00:18:40.396Z,74.07
2017-08-12T00:19:49.247Z,74.17
2017-08-12T00:20:58.100Z,73.68
2017-08-12T00:22:06.955Z,73.88
2017-08-12T00:23:16.125Z,73.68
2017-08-12T00:24:24.971Z,73.68
2017-08-12T00:25:33.821Z,73.72
2017-08-12T00:26:42.674Z,73.68
2017-08-12T00:27:51.519Z,74.17
2017-08-12T00:29:00.372Z,74.17
2017-08-12T00:30:09.226Z,74.27
2017-08-12T00:31:18.080Z,73.59
2017-08-12T00:32:26.923Z,73.59
2017-08-12T00:33:35.773Z,73.88
2017-08-12T00:34:44.626Z,73.88
2017-08-12T00:35:53.476Z,73.88
2017-08-12T00:37:02.331Z,74.07
2017-08-12T00:38:11.186Z,74.17
2017-08-12T00:39:20.034Z,73.78
2017-08-12T00:40:28.883Z,73.88
2017-08-12T00:41:37.734Z,73.88
2017-08-12T00:42:46.586Z,73.78
2017-08-12T00:43:55.435Z,73.78
2017-08-12T00:45:04.284Z,73.59
2017-08-12T00:46:13.126Z,73.97
2017-08-12T00:47:21.983Z,73.78
2017-08-12T00:48:31.161Z,73.78
2017-08-12T00:49:40.013Z,73.78
2017-08-12T00:50:48.863Z,73.88
2017-08-12T00:52:00.781Z,73.68
2017-08-12T00:53:09.629Z,73.78
2017-08-12T00:54:18.525Z,73.59
2017-08-12T00:55:27.370Z,73.97
2017-08-12T00:56:36.538Z,73.59
2017-08-12T00:57:45.386Z,73.97
2017-08-12T00:58:54.238Z,73.88
2017-08-12T01:00:03.096Z,73.78
2017-08-12T01:01:12.307Z,73.97
2017-08-12T01:02:21.157Z,73.97
2017-08-12T01:03:30.008Z,73.97
2017-08-12T01:04:38.858Z,73.3
2017-08-12T01:05:48.343Z,73.97
2017-08-12T01:06:57.193Z,73.39
2017-08-12T01:08:06.046Z,73.78
2017-08-12T01:09:14.895Z,73.59
2017-08-12T01:10:23.753Z,73.59
2017-08-12T01:11:32.611Z,73.88
2017-08-12T01:12:41.455Z,73.59
2017-08-12T01:13:50.300Z,73.59
2017-08-12T01:14:59.150Z,73.68
2017-08-12T01:16:07.995Z,73.78
2017-08-12T01:17:16.851Z,73.88
2017-08-12T01:18:25.704Z,73.59
2017-08-12T01:19:34.558Z,73.59
2017-08-12T01:20:43.431Z,73.88
2017-08-12T01:21:52.277Z,73.59
2017-08-12T01:23:01.120Z,73.39
2017-08-12T01:24:09.971Z,73.59
2017-08-12T01:25:18.821Z,73.59
2017-08-12T01:26:27.669Z,73.49
2017-08-12T01:27:36.520Z,73.59
2017-08-12T01:28:45.369Z,73.59
2017-08-12T01:29:54.536Z,73.78
2017-08-12T01:31:03.388Z,73.78
2017-08-12T01:32:12.247Z,73.78
2017-08-12T01:33:21.092Z,73.59
2017-08-12T01:34:29.937Z,73.78
2017-08-12T01:35:39.106Z,73.78
2017-08-12T01:36:47.954Z,73.65
2017-08-12T01:37:56.808Z,73.49
2017-08-12T01:39:05.656Z,73.59
2017-08-12T01:40:14.507Z,73.59
2017-08-12T01:41:23.360Z,73.74
2017-08-12T01:42:32.214Z,73.55
2017-08-12T01:43:41.699Z,73.78
2017-08-12T01:44:50.548Z,73.68
2017-08-12T01:45:59.397Z,73.55
2017-08-12T01:47:08.560Z,73.49
2017-08-12T01:48:17.404Z,73.49
2017-08-12T01:49:26.265Z,73.39
2017-08-12T01:50:35.149Z,73.55
2017-08-12T01:51:44.002Z,73.36
2017-08-12T01:52:52.882Z,73.46
2017-08-12T01:54:01.739Z,73.26
2017-08-12T01:55:10.587Z,73.07
2017-08-12T01:56:19.434Z,73.2
2017-08-12T01:57:28.279Z,73.16
2017-08-12T01:58:37.129Z,73.46
2017-08-12T01:59:45.982Z,73.07
2017-08-12T02:00:54.828Z,73.16
2017-08-12T02:02:03.679Z,73.46
2017-08-12T02:03:12.533Z,73.36
2017-08-12T02:04:21.381Z,73.16
2017-08-12T02:05:30.228Z,73.26
2017-08-12T02:06:39.070Z,73.36
2017-08-12T02:07:47.920Z,73.26
2017-08-12T02:08:57.083Z,73.46
2017-08-12T02:10:05.937Z,73.55
2017-08-12T02:11:14.787Z,73.46
2017-08-12T02:12:23.632Z,73.26
2017-08-12T02:13:32.484Z,73.49
2017-08-12T02:14:41.336Z,73.26
2017-08-12T02:15:50.184Z,73.07
2017-08-12T02:16:59.351Z,73.16
2017-08-12T02:18:08.197Z,73.16
2017-08-12T02:19:17.048Z,73.36
2017-08-12T02:20:25.895Z,73.46
2017-08-12T02:21:34.752Z,73.46
2017-08-12T02:22:43.915Z,73.16
2017-08-12T02:23:52.766Z,73.36
2017-08-12T02:25:01.619Z,73.46
2017-08-12T02:26:10.778Z,73.46
2017-08-12T02:27:19.950Z,73.55
2017-08-12T02:28:28.798Z,73.16
2017-08-12T02:29:37.648Z,73.07
2017-08-12T02:30:46.495Z,73.16
2017-08-12T02:31:55.349Z,72.97
2017-08-12T02:33:04.520Z,73.16
2017-08-12T02:34:13.373Z,73.26
2017-08-12T02:35:22.224Z,73.36
2017-08-12T02:36:31.069Z,73.26
2017-08-12T02:37:39.949Z,73.16
2017-08-12T02:38:49.150Z,73.26
2017-08-12T02:39:58.010Z,73.16
2017-08-12T02:41:06.864Z,73.07
2017-08-12T02:42:15.711Z,73.16
2017-08-12T02:43:24.558Z,73.16
2017-08-12T02:44:33.426Z,73.07
2017-08-12T02:45:42.278Z,73.26
2017-08-12T02:46:51.438Z,73.36
2017-08-12T02:48:00.290Z,73.16
2017-08-12T02:49:09.455Z,73.26
2017-08-12T02:50:18.305Z,72.58
2017-08-12T02:51:27.157Z,72.97
2017-08-12T02:52:36.007Z,72.68
2017-08-12T02:53:44.858Z,72.88
2017-08-12T02:54:53.706Z,73.26
2017-08-12T02:56:02.561Z,73.07
2017-08-12T02:57:11.407Z,73.26
2017-08-12T02:58:20.259Z,73.16
2017-08-12T02:59:29.115Z,73.46
2017-08-12T03:00:37.959Z,72.97
2017-08-12T03:01:46.811Z,72.3
2017-08-12T03:02:55.662Z,72.3
2017-08-12T03:04:04.835Z,72.39
2017-08-12T03:05:13.685Z,72.97
2017-08-12T03:06:22.534Z,72.78
2017-08-12T03:07:31.387Z,72.49
2017-08-12T03:08:40.242Z,72.58
2017-08-12T03:09:49.125Z,72.58
2017-08-12T03:10:58.289Z,72.78
2017-08-12T03:12:07.133Z,72.39
2017-08-12T03:13:15.981Z,72.49
2017-08-12T03:14:25.155Z,72.78
2017-08-12T03:15:34.025Z,72.68
2017-08-12T03:16:42.872Z,72.78
2017-08-12T03:17:51.727Z,72.68
2017-08-12T03:19:00.575Z,72.68
2017-08-12T03:20:09.432Z,72.49
2017-08-12T03:21:18.277Z,72.68
2017-08-12T03:22:27.121Z,72.68
2017-08-12T03:23:35.971Z,72.78
2017-08-12T03:24:45.153Z,72.58
2017-08-12T03:25:53.999Z,72.97
2017-08-12T03:27:02.864Z,72.58
2017-08-12T03:28:11.714Z,72.78
2017-08-12T03:29:20.559Z,72.3
2017-08-12T03:30:29.418Z,72.39
2017-08-12T03:31:38.280Z,72.39
2017-08-12T03:32:47.123Z,72.58
2017-08-12T03:33:55.976Z,72.68
2017-08-12T03:35:04.821Z,72.78
2017-08-12T03:36:13.668Z,72.68
2017-08-12T03:37:22.520Z,72.39
2017-08-12T03:38:31.368Z,72.39
2017-08-12T03:39:40.219Z,72.68
2017-08-12T03:40:49.079Z,72.49
2017-08-12T03:41:57.920Z,72.39
2017-08-12T03:43:06.767Z,72.68
2017-08-12T03:44:15.938Z,72.39
2017-08-12T03:45:24.789Z,72.78
2017-08-12T03:46:33.636Z,72.78
2017-08-12T03:47:42.797Z,72.58
2017-08-12T03:48:51.642Z,72.88
2017-08-12T03:50:00.491Z,72.68
2017-08-12T03:51:09.362Z,72.58
2017-08-12T03:52:18.214Z,72.68
2017-08-12T03:53:27.067Z,72.3
2017-08-12T03:54:35.927Z,72.58
2017-08-12T03:55:44.771Z,72.45
2017-08-12T03:56:53.938Z,72.39
2017-08-12T03:58:02.812Z,72.36
2017-08-12T03:59:11.675Z,72.55
2017-08-12T04:00:20.518Z,72.64
2017-08-12T04:01:29.360Z,72.74
2017-08-12T04:02:38.530Z,72.94
2017-08-12T04:03:47.376Z,72.45
2017-08-12T04:04:56.238Z,72.55
2017-08-12T04:06:05.091Z,72.45
2017-08-12T04:07:14.258Z,72.26
2017-08-12T04:08:23.100Z,72.74
2017-08-12T04:09:31.953Z,72.94
2017-08-12T04:10:40.800Z,72.26
2017-08-12T04:11:49.648Z,72.55
2017-08-12T04:12:58.498Z,72.55
2017-08-12T04:14:07.379Z,72.45
2017-08-12T04:15:16.230Z,72.45
2017-08-12T04:16:25.074Z,72.64
2017-08-12T04:17:33.928Z,72.55
2017-08-12T04:18:42.776Z,72.45
2017-08-12T04:19:51.632Z,72.26
2017-08-12T04:21:00.473Z,72.45
2017-08-12T04:22:09.961Z,72.55
2017-08-12T04:23:18.823Z,72.36
2017-08-12T04:24:27.671Z,72.64
2017-08-12T04:25:36.526Z,72.64
2017-08-12T04:26:45.375Z,72.64
2017-08-12T04:27:54.250Z,72.36
2017-08-12T04:29:03.102Z,72.36
2017-08-12T04:30:11.954Z,72.64
2017-08-12T04:31:20.810Z,72.64
2017-08-12T04:32:29.655Z,72.45
2017-08-12T04:33:38.510Z,72.45
2017-08-12T04:34:47.366Z,72.45
2017-08-12T04:35:56.215Z,72.64
2017-08-12T04:37:05.061Z,72.64
2017-08-12T04:38:13.909Z,72.74
2017-08-12T04:39:22.757Z,72.64
2017-08-12T04:40:31.606Z,72.36
2017-08-12T04:41:40.451Z,72.64
2017-08-12T04:42:49.307Z,72.64
2017-08-12T04:43:58.153Z,72.64
2017-08-12T04:45:07.006Z,72.36
2017-08-12T04:46:15.854Z,72.55
2017-08-12T04:47:24.700Z,72.64
2017-08-12T04:48:33.554Z,72.64
2017-08-12T04:49:42.423Z,72.45
2017-08-12T04:50:51.274Z,72.64
2017-08-12T04:52:00.121Z,72.74
2017-08-12T04:53:08.973Z,72.74
2017-08-12T04:54:17.819Z,72.36
2017-08-12T04:55:26.675Z,72.45
2017-08-12T04:56:35.525Z,72.36
2017-08-12T04:57:44.365Z,72.64
2017-08-12T04:58:53.219Z,72.74
2017-08-12T05:00:02.066Z,72.55
2017-08-12T05:01:10.928Z,72.64
2017-08-12T05:02:19.784Z,72.64
2017-08-12T05:03:28.661Z,72.55
2017-08-12T05:04:37.518Z,72.45
2017-08-12T05:05:46.678Z,72.74
2017-08-12T05:06:55.535Z,72.26
2017-08-12T05:08:04.693Z,72.55
2017-08-12T05:09:13.545Z,72.64
2017-08-12T05:10:22.393Z,72.55
2017-08-12T05:11:31.560Z,72.36
2017-08-12T05:12:40.721Z,72.55
2017-08-12T05:13:49.568Z,72.84
2017-08-12T05:14:58.419Z,72.64
2017-08-12T05:16:07.263Z,72.64
2017-08-12T05:17:16.118Z,72.64
2017-08-12T05:18:24.969Z,72.64
2017-08-12T05:19:33.820Z,72.74
2017-08-12T05:20:42.663Z,72.64
2017-08-12T05:21:51.513Z,72.64
2017-08-12T05:23:00.358Z,72.55
2017-08-12T05:24:09.211Z,72.26
2017-08-12T05:25:18.058Z,72.84
2017-08-12T05:26:26.903Z,72.26
2017-08-12T05:27:35.755Z,72.36
2017-08-12T05:28:44.919Z,72.45
2017-08-12T05:29:53.767Z,72.36
2017-08-12T05:31:02.627Z,72.26
2017-08-12T05:32:11.472Z,72.26
2017-08-12T05:33:20.322Z,72.36
2017-08-12T05:34:29.170Z,72.36
2017-08-12T05:35:38.025Z,72.45
2017-08-12T05:36:46.873Z,72.26
2017-08-12T05:37:55.724Z,72.26
2017-08-12T05:39:04.570Z,72.36
2017-08-12T05:40:13.421Z,72.26
2017-08-12T05:41:22.273Z,72.26
2017-08-12T05:42:31.124Z,72.26
2017-08-12T05:43:39.981Z,72.55
2017-08-12T05:44:48.828Z,72.26
2017-08-12T05:45:57.672Z,72.55
2017-08-12T05:47:06.523Z,72.84
2017-08-12T05:48:15.370Z,72.64
2017-08-12T05:49:24.228Z,72.36
2017-08-12T05:50:33.074Z,72.26
2017-08-12T05:51:41.926Z,72.26
2017-08-12T05:52:50.775Z,72.16
2017-08-12T05:53:59.618Z,72.36
2017-08-12T05:55:08.469Z,72.45
2017-08-12T05:56:17.321Z,72.84
2017-08-12T05:57:26.166Z,72.36
2017-08-12T05:58:35.325Z,72.9
2017-08-12T05:59:44.190Z,72.84
2017-08-12T06:00:53.040Z,72.26
2017-08-12T06:02:02.208Z,72.06
2017-08-12T06:03:11.055Z,72.36
2017-08-12T06:04:19.904Z,72.26
2017-08-12T06:05:29.067Z,72.45
2017-08-12T06:06:37.932Z,72.84
2017-08-12T06:07:46.778Z,72.45
2017-08-12T06:08:55.637Z,72.26
2017-08-12T06:10:04.491Z,72.16
2017-08-12T06:11:13.337Z,72.06
2017-08-12T06:12:22.511Z,72.26
2017-08-12T06:13:31.360Z,72.42
2017-08-12T06:14:40.207Z,72.84
2017-08-12T06:15:49.055Z,72.26
2017-08-12T06:16:58.222Z,72.26
2017-08-12T06:18:07.064Z,72.06
2017-08-12T06:19:15.912Z,72.26
2017-08-12T06:20:24.764Z,72.16
2017-08-12T06:21:33.607Z,72.26
2017-08-12T06:22:42.457Z,72.36
2017-08-12T06:23:51.303Z,72.36
2017-08-12T06:25:00.153Z,72.36
2017-08-12T06:26:09.005Z,72.03
2017-08-12T06:27:17.851Z,72.26
2017-08-12T06:28:26.707Z,72.26
2017-08-12T06:29:35.570Z,72.36
2017-08-12T06:30:44.424Z,72.26
2017-08-12T06:31:53.270Z,72.45
2017-08-12T06:33:02.439Z,72.26
2017-08-12T06:34:11.290Z,72.26
2017-08-12T06:35:20.454Z,71.88
2017-08-12T06:36:29.624Z,72.06
2017-08-12T06:37:38.475Z,71.97
2017-08-12T06:38:47.326Z,72.06
2017-08-12T06:39:56.172Z,71.97
2017-08-12T06:41:05.336Z,72.06
2017-08-12T06:42:14.188Z,71.97
2017-08-12T06:43:23.034Z,71.97
2017-08-12T06:44:31.889Z,72.06
2017-08-12T06:45:40.740Z,71.97
2017-08-12T06:46:50.220Z,72.06
2017-08-12T06:47:59.070Z,72.16
2017-08-12T06:49:07.919Z,72.16
2017-08-12T06:50:16.766Z,71.97
2017-08-12T06:51:25.616Z,72.16
2017-08-12T06:52:34.467Z,72.16
2017-08-12T06:53:43.635Z,72.26
2017-08-12T06:54:52.488Z,72.06
2017-08-12T06:56:01.337Z,71.68
2017-08-12T06:57:10.185Z,71.78
2017-08-12T06:58:19.037Z,71.39
2017-08-12T06:59:27.880Z,71.97
2017-08-12T07:00:36.723Z,71.78
2017-08-12T07:01:45.577Z,71.78
2017-08-12T07:02:54.426Z,72.06
2017-08-12T07:04:03.284Z,71.88
2017-08-12T07:05:12.124Z,72.16
2017-08-12T07:06:20.978Z,71.88
2017-08-12T07:07:29.825Z,72.16
2017-08-12T07:08:38.679Z,71.78
2017-08-12T07:09:47.534Z,72.06
2017-08-12T07:10:56.380Z,72.26
2017-08-12T07:12:05.544Z,72.06
2017-08-12T07:13:14.717Z,71.88
2017-08-12T07:14:23.567Z,71.78
2017-08-12T07:15:32.421Z,71.88
2017-08-12T07:16:41.269Z,71.58
2017-08-12T07:17:50.125Z,71.97
2017-08-12T07:18:58.967Z,71.88
2017-08-12T07:20:07.821Z,71.97
2017-08-12T07:21:16.666Z,72.16
2017-08-12T07:22:25.520Z,71.97
2017-08-12T07:23:34.370Z,71.88
2017-08-12T07:24:43.217Z,71.97
2017-08-12T07:25:52.058Z,71.97
2017-08-12T07:27:00.909Z,71.88
2017-08-12T07:28:09.764Z,71.88
2017-08-12T07:29:18.610Z,71.88
2017-08-12T07:30:27.455Z,71.88
2017-08-12T07:31:36.312Z,71.88
2017-08-12T07:32:45.161Z,71.97
2017-08-12T07:33:54.333Z,72.16
2017-08-12T07:35:03.180Z,71.97
2017-08-12T07:36:12.029Z,71.78
2017-08-12T07:37:20.875Z,71.68
2017-08-12T07:38:29.721Z,72.16
2017-08-12T07:39:38.568Z,71.78
2017-08-12T07:40:47.419Z,71.78
2017-08-12T07:41:56.265Z,71.74
2017-08-12T07:43:05.113Z,71.64
2017-08-12T07:44:13.960Z,72.16
2017-08-12T07:45:22.806Z,72.03
2017-08-12T07:46:31.647Z,72.26
2017-08-12T07:47:40.499Z,72.26
2017-08-12T07:48:49.674Z,71.88
2017-08-12T07:49:58.525Z,72.13
2017-08-12T07:51:07.714Z,71.78
2017-08-12T07:52:16.559Z,71.78
2017-08-12T07:53:25.407Z,71.68
2017-08-12T07:54:34.263Z,72.03
2017-08-12T07:55:43.115Z,72.06
2017-08-12T07:56:51.968Z,71.64
2017-08-12T07:58:00.817Z,72.16
2017-08-12T07:59:09.664Z,72.06
2017-08-12T08:00:18.516Z,72.16
2017-08-12T08:01:27.369Z,71.78
2017-08-12T08:02:36.213Z,72.16
2017-08-12T08:03:45.383Z,72.16
2017-08-12T08:04:54.233Z,71.78
2017-08-12T08:06:03.086Z,72.16
2017-08-12T08:07:11.936Z,72.16
2017-08-12T08:08:21.097Z,71.88
2017-08-12T08:09:29.945Z,71.97
2017-08-12T08:10:38.795Z,72.06
2017-08-12T08:11:47.644Z,71.97
2017-08-12T08:12:56.497Z,72.13
2017-08-12T08:14:05.346Z,71.97
2017-08-12T08:15:14.196Z,71.97
2017-08-12T08:16:23.037Z,71.97
2017-08-12T08:17:31.884Z,71.84
2017-08-12T08:18:40.734Z,72.06
2017-08-12T08:19:49.585Z,71.97
2017-08-12T08:20:58.433Z,71.74
2017-08-12T08:22:07.277Z,71.88
2017-08-12T08:23:16.134Z,71.97
2017-08-12T08:24:24.978Z,71.94
2017-08-12T08:25:33.828Z,72.55
2017-08-12T08:26:42.680Z,71.97
2017-08-12T08:27:51.527Z,72.16
2017-08-12T08:29:00.372Z,71.88
2017-08-12T08:30:09.224Z,72.03
2017-08-12T08:31:18.075Z,71.97
2017-08-12T08:32:26.922Z,71.97
2017-08-12T08:33:35.774Z,72.16
2017-08-12T08:34:44.617Z,71.88
2017-08-12T08:35:53.471Z,72.03
2017-08-12T08:37:02.321Z,71.97
2017-08-12T08:38:11.171Z,72.52
2017-08-12T08:39:20.022Z,71.78
2017-08-12T08:40:28.870Z,72.22
2017-08-12T08:41:37.721Z,72.32
2017-08-12T08:42:46.571Z,71.84
2017-08-12T08:43:55.422Z,72.03
2017-08-12T08:45:04.272Z,71.97
2017-08-12T08:46:13.121Z,72.26
2017-08-12T08:47:22.317Z,71.97
2017-08-12T08:48:31.167Z,72.03
2017-08-12T08:49:40.011Z,72.22
2017-08-12T08:50:48.864Z,72.22
2017-08-12T08:51:57.715Z,71.84
2017-08-12T08:53:06.565Z,72.22
2017-08-12T08:54:15.415Z,72.42
2017-08-12T08:55:24.260Z,72.42
2017-08-12T08:56:33.115Z,71.78
2017-08-12T08:57:41.958Z,72.06
2017-08-12T08:58:50.812Z,71.97
2017-08-12T08:59:59.664Z,71.97
2017-08-12T09:01:08.510Z,71.97
2017-08-12T09:02:17.358Z,72.26
2017-08-12T09:03:26.525Z,72.16
2017-08-12T09:04:35.366Z,72.16
2017-08-12T09:05:44.217Z,72.06
2017-08-12T09:06:53.065Z,72.16
2017-08-12T09:08:02.236Z,72.16
2017-08-12T09:09:11.080Z,72.06
2017-08-12T09:10:20.286Z,72.06
2017-08-12T09:11:29.131Z,71.97
2017-08-12T09:12:37.986Z,71.97
2017-08-12T09:13:46.842Z,71.88
2017-08-12T09:14:55.684Z,72.26
2017-08-12T09:16:04.530Z,71.88
2017-08-12T09:17:13.381Z,72.42
2017-08-12T09:18:22.229Z,72.26
2017-08-12T09:19:31.079Z,71.84
2017-08-12T09:20:39.933Z,72.45
2017-08-12T09:21:48.780Z,72.26
2017-08-12T09:22:57.626Z,72.45
2017-08-12T09:24:06.480Z,72.16
2017-08-12T09:25:15.328Z,72.36
2017-08-12T09:26:24.179Z,72.06
2017-08-12T09:27:33.031Z,72.45
2017-08-12T09:28:42.200Z,72.36
2017-08-12T09:29:51.045Z,72.55
2017-08-12T09:30:59.898Z,72.26
2017-08-12T09:32:09.066Z,72.55
2017-08-12T09:33:17.920Z,71.88
2017-08-12T09:34:26.766Z,72.26
2017-08-12T09:35:35.616Z,72.26
2017-08-12T09:36:44.460Z,72.16
2017-08-12T09:37:53.311Z,72.26
2017-08-12T09:39:02.161Z,72.26
2017-08-12T09:40:11.012Z,72.36
2017-08-12T09:41:19.864Z,72.36
2017-08-12T09:42:28.710Z,72.26
2017-08-12T09:43:37.567Z,72.26
2017-08-12T09:44:46.422Z,72.36
2017-08-12T09:45:55.592Z,72.26
2017-08-12T09:47:04.439Z,72.26
2017-08-12T09:48:13.606Z,72.16
2017-08-12T09:49:22.453Z,72.26
2017-08-12T09:50:31.303Z,72.26
2017-08-12T09:51:40.480Z,72.55
2017-08-12T09:52:49.323Z,72.26
2017-08-12T09:53:58.806Z,71.97
2017-08-12T09:55:07.655Z,72.55
2017-08-12T09:56:16.508Z,72.26
2017-08-12T09:57:25.371Z,72.45
2017-08-12T09:58:34.220Z,72.55
2017-08-12T09:59:43.079Z,72.26
2017-08-12T10:00:51.927Z,72.45
2017-08-12T10:02:00.777Z,71.78
2017-08-12T10:03:09.625Z,71.97
2017-08-12T10:04:18.793Z,72.26
2017-08-12T10:05:27.647Z,72.26
2017-08-12T10:06:36.498Z,72.26
2017-08-12T10:07:45.350Z,72.16
2017-08-12T10:08:54.200Z,72.26
2017-08-12T10:10:03.050Z,72.26
2017-08-12T10:11:12.213Z,72.26
2017-08-12T10:12:21.378Z,72.16
2017-08-12T10:13:30.230Z,72.26
2017-08-12T10:14:39.078Z,72.16
2017-08-12T10:15:47.928Z,72.16
2017-08-12T10:16:57.091Z,72.26
2017-08-12T10:18:05.938Z,72.26
2017-08-12T10:19:14.790Z,72.64
2017-08-12T10:20:23.644Z,72.45
2017-08-12T10:21:32.496Z,72.26
2017-08-12T10:22:41.378Z,72.26
2017-08-12T10:23:50.236Z,72.26
2017-08-12T10:24:59.081Z,72.45
2017-08-12T10:26:07.936Z,72.36
2017-08-12T10:27:16.795Z,72.26
2017-08-12T10:28:25.641Z,72.16
2017-08-12T10:29:34.487Z,72.16
2017-08-12T10:30:43.340Z,72.26
2017-08-12T10:31:52.194Z,72.26
2017-08-12T10:33:01.046Z,72.26
2017-08-12T10:34:10.215Z,72.16
2017-08-12T10:35:19.387Z,72.45
2017-08-12T10:36:28.245Z,72.26
2017-08-12T10:37:37.091Z,72.26
2017-08-12T10:38:46.256Z,72.26
2017-08-12T10:39:55.099Z,72.26
2017-08-12T10:41:03.945Z,72.36
2017-08-12T10:42:12.798Z,72.16
2017-08-12T10:43:21.962Z,72.45
2017-08-12T10:44:30.814Z,72.06
2017-08-12T10:45:39.661Z,72.16
2017-08-12T10:46:48.529Z,72.26
2017-08-12T10:47:57.371Z,72.16
2017-08-12T10:49:06.222Z,72.16
2017-08-12T10:50:15.073Z,72.26
2017-08-12T10:51:23.924Z,72.26
2017-08-12T10:52:32.774Z,71.88
2017-08-12T10:53:41.626Z,72.26
2017-08-12T10:54:50.481Z,72.36
2017-08-12T10:55:59.332Z,72.26
2017-08-12T10:57:08.502Z,72.26
2017-08-12T10:58:17.353Z,72.16
2017-08-12T10:59:26.201Z,71.97
2017-08-12T11:00:35.054Z,72.06
2017-08-12T11:01:43.899Z,72.16
2017-08-12T11:02:52.753Z,72.26
2017-08-12T11:04:01.623Z,72.16
2017-08-12T11:05:10.476Z,72.06
2017-08-12T11:06:19.333Z,72.06
2017-08-12T11:07:28.182Z,72.06
2017-08-12T11:08:37.026Z,72.16
2017-08-12T11:09:45.880Z,72.16
2017-08-12T11:10:54.729Z,72.06
2017-08-12T11:12:03.572Z,72.16
2017-08-12T11:13:12.420Z,72.06
2017-08-12T11:14:21.277Z,71.72
2017-08-12T11:15:30.127Z,71.68
2017-08-12T11:16:38.979Z,71.88
2017-08-12T11:17:47.827Z,71.91
2017-08-12T11:18:56.678Z,72.1
2017-08-12T11:20:05.596Z,72.16
2017-08-12T11:21:14.450Z,72.06
2017-08-12T11:22:23.303Z,72.26
2017-08-12T11:23:32.150Z,71.78
2017-08-12T11:24:41.003Z,71.97
2017-08-12T11:25:49.853Z,71.78
2017-08-12T11:26:58.705Z,71.88
2017-08-12T11:28:07.556Z,71.81
2017-08-12T11:29:16.402Z,71.97
2017-08-12T11:30:25.257Z,72
2017-08-12T11:31:34.102Z,71.52
2017-08-12T11:32:42.963Z,71.97
2017-08-12T11:33:51.821Z,72
2017-08-12T11:35:01.005Z,72.1
2017-08-12T11:36:09.855Z,71.78
2017-08-12T11:37:18.709Z,71.91
2017-08-12T11:38:27.557Z,71.72
2017-08-12T11:39:36.413Z,71.97
2017-08-12T11:40:45.258Z,72
2017-08-12T11:41:54.116Z,72
2017-08-12T11:43:03.276Z,72.1
2017-08-12T11:44:12.125Z,71.91
2017-08-12T11:45:20.976Z,71.91
2017-08-12T11:46:30.151Z,71.81
2017-08-12T11:47:38.999Z,71.91
2017-08-12T11:48:47.846Z,71.88
2017-08-12T11:49:56.694Z,71.72
2017-08-12T11:51:05.543Z,71.33
2017-08-12T11:52:14.398Z,71.52
2017-08-12T11:53:23.245Z,71.52
2017-08-12T11:54:32.088Z,71.42
2017-08-12T11:55:40.934Z,71.52
2017-08-12T11:56:50.106Z,71.72
2017-08-12T11:57:58.959Z,71.52
2017-08-12T11:59:07.808Z,71.62
2017-08-12T12:00:16.659Z,71.72
2017-08-12T12:01:25.526Z,71.62
2017-08-12T12:02:34.372Z,71.52
2017-08-12T12:03:43.223Z,71.81
2017-08-12T12:04:52.074Z,71.91
2017-08-12T12:06:00.920Z,71.81
2017-08-12T12:07:09.770Z,71.91
2017-08-12T12:08:18.624Z,71.91
2017-08-12T12:09:27.476Z,71.91
2017-08-12T12:10:36.327Z,71.72
2017-08-12T12:11:45.175Z,72.3
2017-08-12T12:12:54.042Z,71.81
2017-08-12T12:14:02.888Z,71.81
2017-08-12T12:15:11.732Z,71.91
2017-08-12T12:16:20.581Z,72
2017-08-12T12:17:29.429Z,72
2017-08-12T12:18:38.270Z,72.1
2017-08-12T12:19:47.437Z,71.81
2017-08-12T12:20:56.295Z,71.81
2017-08-12T12:22:05.142Z,72.1
2017-08-12T12:23:13.994Z,71.88
2017-08-12T12:24:22.847Z,71.72
2017-08-12T12:25:32.331Z,71.91
2017-08-12T12:26:41.173Z,71.52
2017-08-12T12:27:50.026Z,71.72
2017-08-12T12:28:58.869Z,72.2
2017-08-12T12:30:07.734Z,71.91
2017-08-12T12:31:16.617Z,72.1
2017-08-12T12:32:25.462Z,72.1
2017-08-12T12:33:34.321Z,71.81
2017-08-12T12:34:43.172Z,71.72
2017-08-12T12:35:52.335Z,71.72
2017-08-12T12:37:01.187Z,71.52
2017-08-12T12:38:10.030Z,71.52
2017-08-12T12:39:18.884Z,71.42
2017-08-12T12:40:27.741Z,71.62
2017-08-12T12:41:36.639Z,71.62
2017-08-12T12:42:45.484Z,71.91
2017-08-12T12:43:54.343Z,72.1
2017-08-12T12:45:03.193Z,71.91
2017-08-12T12:46:12.045Z,71.81
2017-08-12T12:47:20.897Z,71.33
2017-08-12T12:48:29.748Z,71.52
2017-08-12T12:49:38.917Z,71.81
2017-08-12T12:50:47.769Z,71.72
2017-08-12T12:51:56.929Z,71.72
2017-08-12T12:53:06.103Z,71.62
2017-08-12T12:54:14.955Z,71.42
2017-08-12T12:55:23.809Z,71.81
2017-08-12T12:56:32.656Z,71.81
2017-08-12T12:57:41.505Z,71.91
2017-08-12T12:58:50.354Z,71.91
2017-08-12T12:59:59.200Z,71.81
2017-08-12T13:01:08.052Z,71.33
2017-08-12T13:02:16.901Z,71.42
2017-08-12T13:03:25.744Z,71.04
2017-08-12T13:04:34.608Z,71.14
2017-08-12T13:05:43.450Z,71.33
2017-08-12T13:06:52.298Z,71.33
2017-08-12T13:08:01.146Z,71.33
2017-08-12T13:09:10.309Z,71.33
2017-08-12T13:10:19.157Z,71.04
2017-08-12T13:11:28.011Z,71.04
2017-08-12T13:12:36.862Z,70.94
2017-08-12T13:13:45.704Z,71.04
2017-08-12T13:14:54.561Z,70.94
2017-08-12T13:16:03.420Z,70.94
2017-08-12T13:17:12.265Z,71.42
2017-08-12T13:18:21.114Z,71.42
2017-08-12T13:19:29.957Z,70.94
2017-08-12T13:20:38.807Z,71.14
2017-08-12T13:21:47.654Z,70.94
2017-08-12T13:22:56.536Z,71.04
2017-08-12T13:24:05.380Z,71.42
2017-08-12T13:25:14.234Z,71.04
2017-08-12T13:26:23.405Z,71.14
2017-08-12T13:27:32.257Z,71.04
2017-08-12T13:28:41.426Z,70.94
2017-08-12T13:29:50.272Z,70.84
2017-08-12T13:30:59.126Z,70.94
2017-08-12T13:32:07.978Z,70.84
2017-08-12T13:33:16.828Z,70.75
2017-08-12T13:34:25.672Z,70.84
2017-08-12T13:35:34.519Z,71.04
2017-08-12T13:36:43.373Z,71.04
2017-08-12T13:37:52.230Z,70.84
2017-08-12T13:39:01.073Z,70.94
2017-08-12T13:40:09.923Z,71.33
2017-08-12T13:41:18.768Z,70.94
2017-08-12T13:42:27.619Z,71.33
2017-08-12T13:43:36.466Z,70.94
2017-08-12T13:44:45.641Z,70.94
2017-08-12T13:45:54.806Z,70.94
2017-08-12T13:47:03.655Z,70.94
2017-08-12T13:48:12.507Z,70.94
2017-08-12T13:49:21.371Z,70.84
2017-08-12T13:50:30.230Z,70.94
2017-08-12T13:51:39.396Z,70.75
2017-08-12T13:52:48.252Z,71.33
2017-08-12T13:53:57.113Z,70.84
2017-08-12T13:55:06.277Z,70.75
2017-08-12T13:56:15.126Z,70.75
2017-08-12T13:57:23.977Z,70.84
2017-08-12T13:58:32.825Z,70.75
2017-08-12T13:59:41.673Z,70.46
2017-08-12T14:00:50.522Z,70.65
2017-08-12T14:01:59.373Z,70.94
2017-08-12T14:03:08.217Z,70.65
2017-08-12T14:04:17.067Z,70.46
2017-08-12T14:05:25.914Z,70.36
2017-08-12T14:06:34.768Z,70.56
2017-08-12T14:07:43.617Z,70.56
2017-08-12T14:08:52.462Z,70.46
2017-08-12T14:10:01.307Z,70.94
2017-08-12T14:11:10.163Z,70.46
2017-08-12T14:12:19.018Z,70.36
2017-08-12T14:13:27.870Z,70.56
2017-08-12T14:14:36.719Z,70.84
2017-08-12T14:15:45.570Z,70.56
2017-08-12T14:16:54.418Z,70.56
2017-08-12T14:18:03.270Z,70.94
2017-08-12T14:19:12.119Z,70.65
2017-08-12T14:20:20.973Z,70.65
2017-08-12T14:21:30.145Z,70.84
2017-08-12T14:22:38.995Z,70.84
2017-08-12T14:23:48.160Z,70.65
2017-08-12T14:24:57.006Z,70.75
2017-08-12T14:26:05.857Z,70.94
2017-08-12T14:27:14.707Z,70.94
2017-08-12T14:28:23.578Z,70.65
2017-08-12T14:29:32.426Z,70.84
2017-08-12T14:30:41.278Z,70.84
2017-08-12T14:31:50.127Z,70.75
2017-08-12T14:32:58.985Z,70.65
2017-08-12T14:34:07.834Z,70.56
2017-08-12T14:35:16.678Z,70.65
2017-08-12T14:36:25.527Z,70.56
2017-08-12T14:37:34.379Z,70.75
2017-08-12T14:38:43.232Z,70.84
2017-08-12T14:39:52.393Z,70.75
2017-08-12T14:41:01.247Z,70.94
2017-08-12T14:42:10.094Z,70.46
2017-08-12T14:43:18.951Z,70.56
2017-08-12T14:44:27.800Z,70.65
2017-08-12T14:45:36.642Z,70.65
2017-08-12T14:46:45.485Z,70.84
2017-08-12T14:47:54.347Z,70.84